sensor_id;sensor_type;location;lat;lon;timestamp;temperature;humidity
16955;DHT22;8594;52.052;8.354;2024-01-15T00:01:53;2.70;99.90
16955;DHT22;8594;52.052;8.354;2024-01-15T00:04:20;2.70;99.90
16955;DHT22;8594;52.052;8.354;2024-01-15T00:06:46;2.60;99.90
16955;DHT22;8594;52.052;8.354;2024-01-15T00:09:13;2.70;99.90
16955;DHT22;8594;52.052;8.354;2024-01-15T00:11:40;2.80;99.90
16955;DHT22;8594;52.052;8.354;2024-01-15T00:14:07;2.80;99.90
16955;DHT22;8594;52.052;8.354;2024-01-15T00:16:34;2.80;99.90
16955;DHT22;8594;52.052;8.354;2024-01-15T00:19:02;2.90;99.90
16955;DHT22;8594;52.052;8.354;2024-01-15T00:21:29;2.80;99.90
16955;DHT22;8594;52.052;8.354;2024-01-15T00:23:56;2.70;99.90
16955;DHT22;8594;52.052;8.354;2024-01-15T00:26:23;2.70;99.90
16955;DHT22;8594;52.052;8.354;2024-01-15T00:28:49;2.80;99.90
16955;DHT22;8594;52.052;8.354;2024-01-15T00:31:16;2.90;99.90
16955;DHT22;8594;52.052;8.354;2024-01-15T00:33:43;2.80;99.90
16955;DHT22;8594;52.052;8.354;2024-01-15T00:36:11;2.80;99.90
16955;DHT22;8594;52.052;8.354;2024-01-15T00:38:39;2.80;99.90
16955;DHT22;8594;52.052;8.354;2024-01-15T00:41:06;3.00;99.90
16955;DHT22;8594;52.052;8.354;2024-01-15T00:43:33;3.00;99.90
16955;DHT22;8594;52.052;8.354;2024-01-15T00:46:01;3.00;99.90
16955;DHT22;8594;52.052;8.354;2024-01-15T00:48:29;3.00;99.90
16955;DHT22;8594;52.052;8.354;2024-01-15T00:50:55;2.90;99.90
16955;DHT22;8594;52.052;8.354;2024-01-15T00:53:25;2.80;99.90
16955;DHT22;8594;52.052;8.354;2024-01-15T00:55:52;2.80;99.90
16955;DHT22;8594;52.052;8.354;2024-01-15T00:58:19;2.90;99.90
16955;DHT22;8594;52.052;8.354;2024-01-15T01:00:45;2.80;99.90
16955;DHT22;8594;52.052;8.354;2024-01-15T01:03:12;2.80;99.90
16955;DHT22;8594;52.052;8.354;2024-01-15T01:05:39;2.70;99.90
16955;DHT22;8594;52.052;8.354;2024-01-15T01:08:06;2.70;99.90
16955;DHT22;8594;52.052;8.354;2024-01-15T01:10:34;2.70;99.90
16955;DHT22;8594;52.052;8.354;2024-01-15T01:13:01;2.80;99.90
16955;DHT22;8594;52.052;8.354;2024-01-15T01:15:28;2.60;99.90
16955;DHT22;8594;52.052;8.354;2024-01-15T01:17:55;2.80;99.90
16955;DHT22;8594;52.052;8.354;2024-01-15T01:20:22;2.90;99.90
16955;DHT22;8594;52.052;8.354;2024-01-15T01:22:49;2.90;99.90
16955;DHT22;8594;52.052;8.354;2024-01-15T01:25:16;3.00;99.90
16955;DHT22;8594;52.052;8.354;2024-01-15T01:27:44;2.80;99.90
16955;DHT22;8594;52.052;8.354;2024-01-15T01:30:11;2.90;99.90
16955;DHT22;8594;52.052;8.354;2024-01-15T01:32:38;2.90;99.90
16955;DHT22;8594;52.052;8.354;2024-01-15T01:35:05;2.90;99.90
16955;DHT22;8594;52.052;8.354;2024-01-15T01:37:33;2.70;99.90
16955;DHT22;8594;52.052;8.354;2024-01-15T01:40:00;2.70;99.90
16955;DHT22;8594;52.052;8.354;2024-01-15T01:42:27;2.50;99.90
16955;DHT22;8594;52.052;8.354;2024-01-15T01:44:55;2.50;99.90
16955;DHT22;8594;52.052;8.354;2024-01-15T01:47:23;2.50;99.90
16955;DHT22;8594;52.052;8.354;2024-01-15T01:49:52;2.60;99.90
16955;DHT22;8594;52.052;8.354;2024-01-15T01:52:19;2.50;99.90
16955;DHT22;8594;52.052;8.354;2024-01-15T01:54:46;2.50;99.90
16955;DHT22;8594;52.052;8.354;2024-01-15T01:57:13;2.50;99.90
16955;DHT22;8594;52.052;8.354;2024-01-15T01:59:42;2.50;99.90
16955;DHT22;8594;52.052;8.354;2024-01-15T02:02:14;2.50;99.90
16955;DHT22;8594;52.052;8.354;2024-01-15T02:04:44;2.50;99.90
16955;DHT22;8594;52.052;8.354;2024-01-15T02:07:13;2.50;99.90
16955;DHT22;8594;52.052;8.354;2024-01-15T02:09:43;2.30;99.90
16955;DHT22;8594;52.052;8.354;2024-01-15T02:12:11;2.30;99.90
16955;DHT22;8594;52.052;8.354;2024-01-15T02:14:39;2.50;99.90
16955;DHT22;8594;52.052;8.354;2024-01-15T02:17:06;2.40;99.90
16955;DHT22;8594;52.052;8.354;2024-01-15T02:19:35;2.40;99.90
16955;DHT22;8594;52.052;8.354;2024-01-15T02:22:01;2.50;99.90
16955;DHT22;8594;52.052;8.354;2024-01-15T02:24:30;2.50;99.90
16955;DHT22;8594;52.052;8.354;2024-01-15T02:26:58;2.60;99.90
16955;DHT22;8594;52.052;8.354;2024-01-15T02:29:25;2.60;99.90
16955;DHT22;8594;52.052;8.354;2024-01-15T02:31:52;2.80;99.90
16955;DHT22;8594;52.052;8.354;2024-01-15T02:34:18;2.90;99.90
16955;DHT22;8594;52.052;8.354;2024-01-15T02:36:45;2.80;99.90
16955;DHT22;8594;52.052;8.354;2024-01-15T02:39:12;2.80;99.90
16955;DHT22;8594;52.052;8.354;2024-01-15T02:41:40;2.80;99.90
16955;DHT22;8594;52.052;8.354;2024-01-15T02:44:07;2.70;99.90
16955;DHT22;8594;52.052;8.354;2024-01-15T02:46:33;2.80;99.90
16955;DHT22;8594;52.052;8.354;2024-01-15T02:49:00;2.70;99.90
16955;DHT22;8594;52.052;8.354;2024-01-15T02:51:27;2.80;99.90
16955;DHT22;8594;52.052;8.354;2024-01-15T02:53:53;2.90;99.90
16955;DHT22;8594;52.052;8.354;2024-01-15T02:56:20;2.80;99.90
16955;DHT22;8594;52.052;8.354;2024-01-15T02:58:48;2.60;99.90
16955;DHT22;8594;52.052;8.354;2024-01-15T03:01:17;2.70;99.90
16955;DHT22;8594;52.052;8.354;2024-01-15T03:03:44;2.70;99.90
16955;DHT22;8594;52.052;8.354;2024-01-15T03:06:11;2.60;99.90
16955;DHT22;8594;52.052;8.354;2024-01-15T03:08:38;2.80;99.90
16955;DHT22;8594;52.052;8.354;2024-01-15T03:11:05;2.70;99.90
16955;DHT22;8594;52.052;8.354;2024-01-15T03:13:35;2.60;99.90
16955;DHT22;8594;52.052;8.354;2024-01-15T03:16:04;2.60;99.90
16955;DHT22;8594;52.052;8.354;2024-01-15T03:18:31;2.70;99.90
16955;DHT22;8594;52.052;8.354;2024-01-15T03:20:58;2.60;99.90
16955;DHT22;8594;52.052;8.354;2024-01-15T03:23:26;2.50;99.90
16955;DHT22;8594;52.052;8.354;2024-01-15T03:25:53;2.40;99.90
16955;DHT22;8594;52.052;8.354;2024-01-15T03:28:20;2.50;99.90
16955;DHT22;8594;52.052;8.354;2024-01-15T03:30:46;2.60;99.90
16955;DHT22;8594;52.052;8.354;2024-01-15T03:33:15;2.70;99.90
16955;DHT22;8594;52.052;8.354;2024-01-15T03:35:42;2.40;99.90
16955;DHT22;8594;52.052;8.354;2024-01-15T03:38:08;2.50;99.90
16955;DHT22;8594;52.052;8.354;2024-01-15T03:40:35;2.60;99.90
16955;DHT22;8594;52.052;8.354;2024-01-15T03:43:02;2.70;99.90
16955;DHT22;8594;52.052;8.354;2024-01-15T03:45:29;2.70;99.90
16955;DHT22;8594;52.052;8.354;2024-01-15T03:47:56;2.80;99.90
16955;DHT22;8594;52.052;8.354;2024-01-15T03:50:24;2.70;99.90
16955;DHT22;8594;52.052;8.354;2024-01-15T03:52:51;2.70;99.90
16955;DHT22;8594;52.052;8.354;2024-01-15T03:55:18;2.70;99.90
16955;DHT22;8594;52.052;8.354;2024-01-15T03:57:44;2.70;99.90
16955;DHT22;8594;52.052;8.354;2024-01-15T04:00:13;2.70;99.90
16955;DHT22;8594;52.052;8.354;2024-01-15T04:02:42;2.80;99.90
16955;DHT22;8594;52.052;8.354;2024-01-15T04:05:10;2.70;99.90
16955;DHT22;8594;52.052;8.354;2024-01-15T04:07:38;2.80;99.90
16955;DHT22;8594;52.052;8.354;2024-01-15T04:10:05;2.60;99.90
16955;DHT22;8594;52.052;8.354;2024-01-15T04:12:33;2.60;99.90
16955;DHT22;8594;52.052;8.354;2024-01-15T04:14:59;2.60;99.90
16955;DHT22;8594;52.052;8.354;2024-01-15T04:17:27;2.50;99.90
16955;DHT22;8594;52.052;8.354;2024-01-15T04:19:54;2.50;99.90
16955;DHT22;8594;52.052;8.354;2024-01-15T04:22:21;2.50;99.90
16955;DHT22;8594;52.052;8.354;2024-01-15T04:24:49;2.70;99.90
16955;DHT22;8594;52.052;8.354;2024-01-15T04:27:16;2.80;99.90
16955;DHT22;8594;52.052;8.354;2024-01-15T04:29:43;2.80;99.90
16955;DHT22;8594;52.052;8.354;2024-01-15T04:32:11;2.70;99.90
16955;DHT22;8594;52.052;8.354;2024-01-15T04:34:38;2.80;99.90
16955;DHT22;8594;52.052;8.354;2024-01-15T04:37:04;2.70;99.90
16955;DHT22;8594;52.052;8.354;2024-01-15T04:39:31;2.70;99.90
16955;DHT22;8594;52.052;8.354;2024-01-15T04:42:00;2.80;99.90
16955;DHT22;8594;52.052;8.354;2024-01-15T04:44:26;2.90;99.90
16955;DHT22;8594;52.052;8.354;2024-01-15T04:46:53;2.90;99.90
16955;DHT22;8594;52.052;8.354;2024-01-15T04:49:20;2.60;99.90
16955;DHT22;8594;52.052;8.354;2024-01-15T04:51:47;2.60;99.90
16955;DHT22;8594;52.052;8.354;2024-01-15T04:54:14;2.70;99.90
16955;DHT22;8594;52.052;8.354;2024-01-15T04:56:43;2.60;99.90
16955;DHT22;8594;52.052;8.354;2024-01-15T04:59:11;2.60;99.90
16955;DHT22;8594;52.052;8.354;2024-01-15T05:01:40;2.80;99.90
16955;DHT22;8594;52.052;8.354;2024-01-15T05:04:06;2.70;99.90
16955;DHT22;8594;52.052;8.354;2024-01-15T05:06:33;2.60;99.90
16955;DHT22;8594;52.052;8.354;2024-01-15T05:09:00;2.70;99.90
16955;DHT22;8594;52.052;8.354;2024-01-15T05:11:28;2.50;99.90
16955;DHT22;8594;52.052;8.354;2024-01-15T05:13:54;2.50;99.90
16955;DHT22;8594;52.052;8.354;2024-01-15T05:16:22;2.50;99.90
16955;DHT22;8594;52.052;8.354;2024-01-15T05:18:49;2.50;99.90
16955;DHT22;8594;52.052;8.354;2024-01-15T05:21:16;2.60;99.90
16955;DHT22;8594;52.052;8.354;2024-01-15T05:23:43;2.60;99.90
16955;DHT22;8594;52.052;8.354;2024-01-15T05:26:10;2.70;99.90
16955;DHT22;8594;52.052;8.354;2024-01-15T05:28:37;2.80;99.90
16955;DHT22;8594;52.052;8.354;2024-01-15T05:31:04;2.70;99.90
16955;DHT22;8594;52.052;8.354;2024-01-15T05:33:32;2.70;99.90
16955;DHT22;8594;52.052;8.354;2024-01-15T05:35:59;2.60;99.90
16955;DHT22;8594;52.052;8.354;2024-01-15T05:38:26;2.70;99.90
16955;DHT22;8594;52.052;8.354;2024-01-15T05:40:53;2.60;99.90
16955;DHT22;8594;52.052;8.354;2024-01-15T05:43:20;2.60;99.90
16955;DHT22;8594;52.052;8.354;2024-01-15T05:45:47;2.50;99.90
16955;DHT22;8594;52.052;8.354;2024-01-15T05:48:14;2.50;99.90
16955;DHT22;8594;52.052;8.354;2024-01-15T05:50:42;2.50;99.90
16955;DHT22;8594;52.052;8.354;2024-01-15T05:53:09;2.60;99.90
16955;DHT22;8594;52.052;8.354;2024-01-15T05:55:36;2.50;99.90
16955;DHT22;8594;52.052;8.354;2024-01-15T05:58:03;2.20;99.90
16955;DHT22;8594;52.052;8.354;2024-01-15T06:00:30;2.40;99.90
16955;DHT22;8594;52.052;8.354;2024-01-15T06:02:58;2.50;99.90
16955;DHT22;8594;52.052;8.354;2024-01-15T06:05:25;2.60;99.90
16955;DHT22;8594;52.052;8.354;2024-01-15T06:07:53;2.50;99.90
16955;DHT22;8594;52.052;8.354;2024-01-15T06:10:20;2.40;99.90
16955;DHT22;8594;52.052;8.354;2024-01-15T06:12:46;2.40;99.90
16955;DHT22;8594;52.052;8.354;2024-01-15T06:15:13;2.50;99.90
16955;DHT22;8594;52.052;8.354;2024-01-15T06:17:40;2.50;99.90
16955;DHT22;8594;52.052;8.354;2024-01-15T06:20:08;2.60;99.90
16955;DHT22;8594;52.052;8.354;2024-01-15T06:22:35;2.60;99.90
16955;DHT22;8594;52.052;8.354;2024-01-15T06:25:06;2.50;99.90
16955;DHT22;8594;52.052;8.354;2024-01-15T06:27:33;2.50;99.90
16955;DHT22;8594;52.052;8.354;2024-01-15T06:30:00;2.40;99.90
16955;DHT22;8594;52.052;8.354;2024-01-15T06:32:27;2.30;99.90
16955;DHT22;8594;52.052;8.354;2024-01-15T06:34:54;2.40;99.90
16955;DHT22;8594;52.052;8.354;2024-01-15T06:37:21;2.50;99.90
16955;DHT22;8594;52.052;8.354;2024-01-15T06:39:47;2.70;99.90
16955;DHT22;8594;52.052;8.354;2024-01-15T06:42:15;2.70;99.90
16955;DHT22;8594;52.052;8.354;2024-01-15T06:44:42;2.50;99.90
16955;DHT22;8594;52.052;8.354;2024-01-15T06:47:09;2.30;99.90
16955;DHT22;8594;52.052;8.354;2024-01-15T06:49:36;2.40;99.90
16955;DHT22;8594;52.052;8.354;2024-01-15T06:52:03;2.50;99.90
16955;DHT22;8594;52.052;8.354;2024-01-15T06:54:30;2.50;99.90
16955;DHT22;8594;52.052;8.354;2024-01-15T06:56:57;2.50;99.90
16955;DHT22;8594;52.052;8.354;2024-01-15T06:59:25;2.50;99.90
16955;DHT22;8594;52.052;8.354;2024-01-15T07:01:52;2.40;99.90
16955;DHT22;8594;52.052;8.354;2024-01-15T07:04:18;2.60;99.90
16955;DHT22;8594;52.052;8.354;2024-01-15T07:06:45;2.60;99.90
16955;DHT22;8594;52.052;8.354;2024-01-15T07:09:13;2.40;99.90
16955;DHT22;8594;52.052;8.354;2024-01-15T07:11:44;2.50;99.90
16955;DHT22;8594;52.052;8.354;2024-01-15T07:14:11;2.70;99.90
16955;DHT22;8594;52.052;8.354;2024-01-15T07:16:39;2.80;99.90
16955;DHT22;8594;52.052;8.354;2024-01-15T07:19:06;2.60;99.90
16955;DHT22;8594;52.052;8.354;2024-01-15T07:21:33;2.50;99.90
16955;DHT22;8594;52.052;8.354;2024-01-15T07:23:59;2.70;99.90
16955;DHT22;8594;52.052;8.354;2024-01-15T07:26:26;2.60;99.90
16955;DHT22;8594;52.052;8.354;2024-01-15T07:28:53;2.60;99.90
16955;DHT22;8594;52.052;8.354;2024-01-15T07:31:20;2.60;99.90
16955;DHT22;8594;52.052;8.354;2024-01-15T07:33:48;2.60;99.90
16955;DHT22;8594;52.052;8.354;2024-01-15T07:36:15;2.60;99.90
16955;DHT22;8594;52.052;8.354;2024-01-15T07:38:41;2.60;99.90
16955;DHT22;8594;52.052;8.354;2024-01-15T07:41:08;2.70;99.90
16955;DHT22;8594;52.052;8.354;2024-01-15T07:43:35;2.80;99.90
16955;DHT22;8594;52.052;8.354;2024-01-15T07:46:02;2.70;99.90
16955;DHT22;8594;52.052;8.354;2024-01-15T07:48:29;2.60;99.90
16955;DHT22;8594;52.052;8.354;2024-01-15T07:50:57;2.60;99.90
16955;DHT22;8594;52.052;8.354;2024-01-15T07:53:24;2.50;99.90
16955;DHT22;8594;52.052;8.354;2024-01-15T07:55:50;2.70;99.90
16955;DHT22;8594;52.052;8.354;2024-01-15T07:58:17;2.70;99.90
16955;DHT22;8594;52.052;8.354;2024-01-15T08:00:44;2.50;99.90
16955;DHT22;8594;52.052;8.354;2024-01-15T08:03:11;2.50;99.90
16955;DHT22;8594;52.052;8.354;2024-01-15T08:05:38;2.60;99.90
16955;DHT22;8594;52.052;8.354;2024-01-15T08:08:06;2.40;99.90
16955;DHT22;8594;52.052;8.354;2024-01-15T08:10:33;2.50;99.90
16955;DHT22;8594;52.052;8.354;2024-01-15T08:12:59;2.60;99.90
16955;DHT22;8594;52.052;8.354;2024-01-15T08:15:26;2.50;99.90
16955;DHT22;8594;52.052;8.354;2024-01-15T08:17:53;2.60;99.90
16955;DHT22;8594;52.052;8.354;2024-01-15T08:20:20;2.50;99.90
16955;DHT22;8594;52.052;8.354;2024-01-15T08:22:47;2.40;99.90
16955;DHT22;8594;52.052;8.354;2024-01-15T08:25:15;2.50;99.90
16955;DHT22;8594;52.052;8.354;2024-01-15T08:27:42;2.10;99.90
16955;DHT22;8594;52.052;8.354;2024-01-15T08:30:10;2.20;99.90
16955;DHT22;8594;52.052;8.354;2024-01-15T08:32:37;2.40;99.90
16955;DHT22;8594;52.052;8.354;2024-01-15T08:35:07;2.30;99.90
16955;DHT22;8594;52.052;8.354;2024-01-15T08:37:34;2.40;99.90
16955;DHT22;8594;52.052;8.354;2024-01-15T08:40:01;2.50;99.90
16955;DHT22;8594;52.052;8.354;2024-01-15T08:42:30;2.60;99.90
16955;DHT22;8594;52.052;8.354;2024-01-15T08:44:56;2.50;99.90
16955;DHT22;8594;52.052;8.354;2024-01-15T08:47:23;2.50;99.90
16955;DHT22;8594;52.052;8.354;2024-01-15T08:49:51;2.50;99.90
16955;DHT22;8594;52.052;8.354;2024-01-15T08:52:17;2.50;99.90
16955;DHT22;8594;52.052;8.354;2024-01-15T08:54:45;2.60;99.90
16955;DHT22;8594;52.052;8.354;2024-01-15T08:57:12;2.60;99.90
16955;DHT22;8594;52.052;8.354;2024-01-15T08:59:40;2.60;99.90
16955;DHT22;8594;52.052;8.354;2024-01-15T09:02:07;2.40;99.90
16955;DHT22;8594;52.052;8.354;2024-01-15T09:04:34;2.40;99.90
16955;DHT22;8594;52.052;8.354;2024-01-15T09:07:01;2.30;99.90
16955;DHT22;8594;52.052;8.354;2024-01-15T09:09:28;2.40;99.90
16955;DHT22;8594;52.052;8.354;2024-01-15T09:11:54;2.30;99.90
16955;DHT22;8594;52.052;8.354;2024-01-15T09:14:21;2.50;99.90
16955;DHT22;8594;52.052;8.354;2024-01-15T09:16:51;2.60;99.90
16955;DHT22;8594;52.052;8.354;2024-01-15T09:19:17;2.60;99.90
16955;DHT22;8594;52.052;8.354;2024-01-15T09:21:44;2.50;99.90
16955;DHT22;8594;52.052;8.354;2024-01-15T09:24:11;2.50;99.90
16955;DHT22;8594;52.052;8.354;2024-01-15T09:26:38;2.50;99.90
16955;DHT22;8594;52.052;8.354;2024-01-15T09:29:04;2.50;99.90
16955;DHT22;8594;52.052;8.354;2024-01-15T09:31:31;2.50;99.90
16955;DHT22;8594;52.052;8.354;2024-01-15T09:33:59;2.70;99.90
16955;DHT22;8594;52.052;8.354;2024-01-15T09:36:27;2.50;99.90
16955;DHT22;8594;52.052;8.354;2024-01-15T09:38:54;2.60;99.90
16955;DHT22;8594;52.052;8.354;2024-01-15T09:41:21;2.70;99.90
16955;DHT22;8594;52.052;8.354;2024-01-15T09:43:48;2.60;99.90
16955;DHT22;8594;52.052;8.354;2024-01-15T09:46:15;2.60;99.90
16955;DHT22;8594;52.052;8.354;2024-01-15T09:48:43;2.60;99.90
16955;DHT22;8594;52.052;8.354;2024-01-15T09:51:11;2.60;99.90
16955;DHT22;8594;52.052;8.354;2024-01-15T09:53:39;2.60;99.90
16955;DHT22;8594;52.052;8.354;2024-01-15T09:56:08;2.70;99.90
16955;DHT22;8594;52.052;8.354;2024-01-15T09:58:37;2.80;99.90
16955;DHT22;8594;52.052;8.354;2024-01-15T10:01:05;2.70;99.90
16955;DHT22;8594;52.052;8.354;2024-01-15T10:03:33;2.80;99.90
16955;DHT22;8594;52.052;8.354;2024-01-15T10:05:59;2.90;99.90
16955;DHT22;8594;52.052;8.354;2024-01-15T10:08:28;2.70;99.90
16955;DHT22;8594;52.052;8.354;2024-01-15T10:10:55;2.80;99.90
16955;DHT22;8594;52.052;8.354;2024-01-15T10:13:22;2.70;99.90
16955;DHT22;8594;52.052;8.354;2024-01-15T10:15:48;2.80;99.90
16955;DHT22;8594;52.052;8.354;2024-01-15T10:18:15;2.70;99.90
16955;DHT22;8594;52.052;8.354;2024-01-15T10:20:42;2.70;99.90
16955;DHT22;8594;52.052;8.354;2024-01-15T10:23:09;2.70;99.90
16955;DHT22;8594;52.052;8.354;2024-01-15T10:25:37;2.70;99.90
16955;DHT22;8594;52.052;8.354;2024-01-15T10:28:04;2.60;99.90
16955;DHT22;8594;52.052;8.354;2024-01-15T10:30:32;2.80;99.90
16955;DHT22;8594;52.052;8.354;2024-01-15T10:33:01;2.80;99.90
16955;DHT22;8594;52.052;8.354;2024-01-15T10:35:30;2.90;99.90
16955;DHT22;8594;52.052;8.354;2024-01-15T10:37:58;2.90;99.90
16955;DHT22;8594;52.052;8.354;2024-01-15T10:40:26;3.10;99.90
16955;DHT22;8594;52.052;8.354;2024-01-15T10:42:55;3.20;99.90
16955;DHT22;8594;52.052;8.354;2024-01-15T10:45:23;3.10;99.90
16955;DHT22;8594;52.052;8.354;2024-01-15T10:47:50;3.00;99.90
16955;DHT22;8594;52.052;8.354;2024-01-15T10:50:17;3.10;99.90
16955;DHT22;8594;52.052;8.354;2024-01-15T10:52:43;2.90;99.90
16955;DHT22;8594;52.052;8.354;2024-01-15T10:55:11;3.00;99.90
16955;DHT22;8594;52.052;8.354;2024-01-15T10:57:38;2.90;99.90
16955;DHT22;8594;52.052;8.354;2024-01-15T11:00:08;3.10;99.90
16955;DHT22;8594;52.052;8.354;2024-01-15T11:02:40;3.30;99.90
16955;DHT22;8594;52.052;8.354;2024-01-15T11:05:09;3.00;99.90
16955;DHT22;8594;52.052;8.354;2024-01-15T11:07:39;3.00;99.90
16955;DHT22;8594;52.052;8.354;2024-01-15T11:10:07;3.20;99.90
16955;DHT22;8594;52.052;8.354;2024-01-15T11:12:55;3.10;99.90
16955;DHT22;8594;52.052;8.354;2024-01-15T11:15:23;3.10;99.90
16955;DHT22;8594;52.052;8.354;2024-01-15T11:18:01;3.10;99.90
16955;DHT22;8594;52.052;8.354;2024-01-15T11:20:30;3.10;99.90
16955;DHT22;8594;52.052;8.354;2024-01-15T11:22:58;3.10;99.90
16955;DHT22;8594;52.052;8.354;2024-01-15T11:25:35;3.00;99.90
16955;DHT22;8594;52.052;8.354;2024-01-15T11:28:04;2.90;99.90
16955;DHT22;8594;52.052;8.354;2024-01-15T11:30:32;2.90;99.90
16955;DHT22;8594;52.052;8.354;2024-01-15T11:33:01;2.90;99.90
16955;DHT22;8594;52.052;8.354;2024-01-15T11:35:50;3.10;99.90
16955;DHT22;8594;52.052;8.354;2024-01-15T11:38:27;2.90;99.90
16955;DHT22;8594;52.052;8.354;2024-01-15T11:40:54;3.10;99.90
16955;DHT22;8594;52.052;8.354;2024-01-15T11:43:22;3.10;99.90
16955;DHT22;8594;52.052;8.354;2024-01-15T11:45:52;2.90;99.90
16955;DHT22;8594;52.052;8.354;2024-01-15T11:48:19;3.00;99.90
16955;DHT22;8594;52.052;8.354;2024-01-15T11:50:50;3.10;99.90
16955;DHT22;8594;52.052;8.354;2024-01-15T11:53:21;3.10;99.90
16955;DHT22;8594;52.052;8.354;2024-01-15T11:55:58;3.10;99.90
16955;DHT22;8594;52.052;8.354;2024-01-15T11:58:26;3.10;99.90
16955;DHT22;8594;52.052;8.354;2024-01-15T12:00:54;3.00;99.90
16955;DHT22;8594;52.052;8.354;2024-01-15T12:03:21;3.00;99.90
16955;DHT22;8594;52.052;8.354;2024-01-15T12:05:48;3.00;99.90
16955;DHT22;8594;52.052;8.354;2024-01-15T12:08:21;3.00;99.90
16955;DHT22;8594;52.052;8.354;2024-01-15T12:10:48;2.80;99.90
16955;DHT22;8594;52.052;8.354;2024-01-15T12:13:15;2.80;99.90
16955;DHT22;8594;52.052;8.354;2024-01-15T12:15:44;2.90;99.90
16955;DHT22;8594;52.052;8.354;2024-01-15T12:18:14;3.00;99.90
16955;DHT22;8594;52.052;8.354;2024-01-15T12:20:43;2.90;99.90
16955;DHT22;8594;52.052;8.354;2024-01-15T12:23:12;2.90;99.90
16955;DHT22;8594;52.052;8.354;2024-01-15T12:25:40;2.90;99.90
16955;DHT22;8594;52.052;8.354;2024-01-15T12:28:07;3.10;99.90
16955;DHT22;8594;52.052;8.354;2024-01-15T12:30:34;3.00;99.90
16955;DHT22;8594;52.052;8.354;2024-01-15T12:33:03;3.00;99.90
16955;DHT22;8594;52.052;8.354;2024-01-15T12:35:33;3.10;99.90
16955;DHT22;8594;52.052;8.354;2024-01-15T12:38:01;3.10;99.90
16955;DHT22;8594;52.052;8.354;2024-01-15T12:40:28;3.20;99.90
16955;DHT22;8594;52.052;8.354;2024-01-15T12:42:55;3.10;99.90
16955;DHT22;8594;52.052;8.354;2024-01-15T12:45:23;3.00;99.90
16955;DHT22;8594;52.052;8.354;2024-01-15T12:47:50;3.00;99.90
16955;DHT22;8594;52.052;8.354;2024-01-15T12:50:17;3.00;99.90
16955;DHT22;8594;52.052;8.354;2024-01-15T12:52:45;3.00;99.90
16955;DHT22;8594;52.052;8.354;2024-01-15T12:55:13;2.90;99.90
16955;DHT22;8594;52.052;8.354;2024-01-15T12:57:40;3.00;99.90
16955;DHT22;8594;52.052;8.354;2024-01-15T13:00:07;3.00;99.90
16955;DHT22;8594;52.052;8.354;2024-01-15T13:02:37;3.00;99.90
16955;DHT22;8594;52.052;8.354;2024-01-15T13:05:05;2.90;99.90
16955;DHT22;8594;52.052;8.354;2024-01-15T13:07:33;3.00;99.90
16955;DHT22;8594;52.052;8.354;2024-01-15T13:10:01;3.10;99.90
16955;DHT22;8594;52.052;8.354;2024-01-15T13:12:28;3.00;99.90
16955;DHT22;8594;52.052;8.354;2024-01-15T13:14:55;2.70;99.90
16955;DHT22;8594;52.052;8.354;2024-01-15T13:17:21;2.80;99.90
16955;DHT22;8594;52.052;8.354;2024-01-15T13:19:48;2.80;99.90
16955;DHT22;8594;52.052;8.354;2024-01-15T13:22:15;2.80;99.90
16955;DHT22;8594;52.052;8.354;2024-01-15T13:24:41;3.10;99.90
16955;DHT22;8594;52.052;8.354;2024-01-15T13:27:10;3.10;99.90
16955;DHT22;8594;52.052;8.354;2024-01-15T13:29:37;3.00;99.90
16955;DHT22;8594;52.052;8.354;2024-01-15T13:32:04;3.00;99.90
16955;DHT22;8594;52.052;8.354;2024-01-15T13:34:31;2.90;99.90
16955;DHT22;8594;52.052;8.354;2024-01-15T13:36:58;3.10;99.90
16955;DHT22;8594;52.052;8.354;2024-01-15T13:39:24;2.90;99.90
16955;DHT22;8594;52.052;8.354;2024-01-15T13:41:51;2.70;99.90
16955;DHT22;8594;52.052;8.354;2024-01-15T13:44:20;2.90;99.90
16955;DHT22;8594;52.052;8.354;2024-01-15T13:46:46;2.90;99.90
16955;DHT22;8594;52.052;8.354;2024-01-15T13:49:13;2.70;99.90
16955;DHT22;8594;52.052;8.354;2024-01-15T13:51:40;2.80;99.90
16955;DHT22;8594;52.052;8.354;2024-01-15T13:54:07;3.00;99.90
16955;DHT22;8594;52.052;8.354;2024-01-15T13:56:33;3.20;99.90
16955;DHT22;8594;52.052;8.354;2024-01-15T13:59:01;3.10;99.90
16955;DHT22;8594;52.052;8.354;2024-01-15T14:01:30;3.00;99.90
16955;DHT22;8594;52.052;8.354;2024-01-15T14:03:58;2.90;99.90
16955;DHT22;8594;52.052;8.354;2024-01-15T14:06:25;3.00;99.90
16955;DHT22;8594;52.052;8.354;2024-01-15T14:08:52;2.90;99.90
16955;DHT22;8594;52.052;8.354;2024-01-15T14:11:18;2.80;99.90
16955;DHT22;8594;52.052;8.354;2024-01-15T14:13:45;2.90;99.90
16955;DHT22;8594;52.052;8.354;2024-01-15T14:16:12;2.80;99.90
16955;DHT22;8594;52.052;8.354;2024-01-15T14:18:40;2.80;99.90
16955;DHT22;8594;52.052;8.354;2024-01-15T14:21:07;3.00;99.90
16955;DHT22;8594;52.052;8.354;2024-01-15T14:23:35;3.20;99.90
16955;DHT22;8594;52.052;8.354;2024-01-15T14:26:01;3.20;99.90
16955;DHT22;8594;52.052;8.354;2024-01-15T14:28:29;3.20;99.90
16955;DHT22;8594;52.052;8.354;2024-01-15T14:30:56;3.20;99.90
16955;DHT22;8594;52.052;8.354;2024-01-15T14:33:24;3.00;99.90
16955;DHT22;8594;52.052;8.354;2024-01-15T14:35:52;2.90;99.90
16955;DHT22;8594;52.052;8.354;2024-01-15T14:38:19;2.70;99.90
16955;DHT22;8594;52.052;8.354;2024-01-15T14:40:46;2.70;99.90
16955;DHT22;8594;52.052;8.354;2024-01-15T14:43:12;2.50;99.90
16955;DHT22;8594;52.052;8.354;2024-01-15T14:45:39;2.30;99.90
16955;DHT22;8594;52.052;8.354;2024-01-15T14:48:06;2.40;99.90
16955;DHT22;8594;52.052;8.354;2024-01-15T14:50:33;2.40;99.90
16955;DHT22;8594;52.052;8.354;2024-01-15T14:53:01;2.30;99.90
16955;DHT22;8594;52.052;8.354;2024-01-15T14:55:27;2.30;99.90
16955;DHT22;8594;52.052;8.354;2024-01-15T14:57:54;2.30;99.90
16955;DHT22;8594;52.052;8.354;2024-01-15T15:00:21;2.30;99.90
16955;DHT22;8594;52.052;8.354;2024-01-15T15:02:48;2.30;99.90
16955;DHT22;8594;52.052;8.354;2024-01-15T15:05:14;2.30;99.90
16955;DHT22;8594;52.052;8.354;2024-01-15T15:07:42;2.40;99.90
16955;DHT22;8594;52.052;8.354;2024-01-15T15:10:10;2.50;99.90
16955;DHT22;8594;52.052;8.354;2024-01-15T15:12:37;2.40;99.90
16955;DHT22;8594;52.052;8.354;2024-01-15T15:15:05;2.40;99.90
16955;DHT22;8594;52.052;8.354;2024-01-15T15:17:32;2.60;99.90
16955;DHT22;8594;52.052;8.354;2024-01-15T15:20:00;2.60;99.90
16955;DHT22;8594;52.052;8.354;2024-01-15T15:22:27;2.50;99.90
16955;DHT22;8594;52.052;8.354;2024-01-15T15:24:54;2.60;99.90
16955;DHT22;8594;52.052;8.354;2024-01-15T15:27:22;2.80;99.90
16955;DHT22;8594;52.052;8.354;2024-01-15T15:29:50;2.80;99.90
16955;DHT22;8594;52.052;8.354;2024-01-15T15:32:16;2.90;99.90
16955;DHT22;8594;52.052;8.354;2024-01-15T15:34:43;3.00;99.90
16955;DHT22;8594;52.052;8.354;2024-01-15T15:37:10;2.70;99.90
16955;DHT22;8594;52.052;8.354;2024-01-15T15:39:37;2.70;99.90
16955;DHT22;8594;52.052;8.354;2024-01-15T15:42:04;2.80;99.90
16955;DHT22;8594;52.052;8.354;2024-01-15T15:44:32;2.70;99.90
16955;DHT22;8594;52.052;8.354;2024-01-15T15:46:59;2.60;99.90
16955;DHT22;8594;52.052;8.354;2024-01-15T15:49:26;2.60;99.90
16955;DHT22;8594;52.052;8.354;2024-01-15T15:51:53;2.80;99.90
16955;DHT22;8594;52.052;8.354;2024-01-15T15:54:19;2.70;99.90
16955;DHT22;8594;52.052;8.354;2024-01-15T15:56:46;2.80;99.90
16955;DHT22;8594;52.052;8.354;2024-01-15T15:59:15;2.70;99.90
16955;DHT22;8594;52.052;8.354;2024-01-15T16:01:45;2.70;99.90
16955;DHT22;8594;52.052;8.354;2024-01-15T16:04:12;2.60;99.90